sensor_id;sensor_type;location;lat;lon;timestamp;P1;durP1;ratioP1;P2;durP2;ratioP2
5981;SDS011;3018;48.730;9.336;2022-11-20T00:02:02;4.05;;;3.83;;
5981;SDS011;3018;48.730;9.336;2022-11-20T00:04:28;4.05;;;3.80;;
5981;SDS011;3018;48.730;9.336;2022-11-20T00:06:54;5.90;;;4.30;;
5981;SDS011;3018;48.730;9.336;2022-11-20T00:09:20;3.92;;;3.63;;
5981;SDS011;3018;48.730;9.336;2022-11-20T00:11:47;5.05;;;4.15;;
5981;SDS011;3018;48.730;9.336;2022-11-20T00:14:14;4.00;;;3.70;;
5981;SDS011;3018;48.730;9.336;2022-11-20T00:16:41;4.45;;;3.80;;
5981;SDS011;3018;48.730;9.336;2022-11-20T00:19:07;3.72;;;3.53;;
5981;SDS011;3018;48.730;9.336;2022-11-20T00:21:33;3.90;;;3.60;;
5981;SDS011;3018;48.730;9.336;2022-11-20T00:23:59;4.10;;;3.70;;
5981;SDS011;3018;48.730;9.336;2022-11-20T00:26:26;3.65;;;3.33;;
5981;SDS011;3018;48.730;9.336;2022-11-20T00:28:53;3.78;;;3.38;;
5981;SDS011;3018;48.730;9.336;2022-11-20T00:31:21;3.38;;;3.08;;
5981;SDS011;3018;48.730;9.336;2022-11-20T00:33:47;3.88;;;3.53;;
5981;SDS011;3018;48.730;9.336;2022-11-20T00:36:14;3.97;;;3.67;;
5981;SDS011;3018;48.730;9.336;2022-11-20T00:38:41;3.67;;;3.47;;
5981;SDS011;3018;48.730;9.336;2022-11-20T00:41:08;4.13;;;3.72;;
5981;SDS011;3018;48.730;9.336;2022-11-20T00:43:36;3.20;;;3.05;;
5981;SDS011;3018;48.730;9.336;2022-11-20T00:46:03;3.60;;;3.38;;
5981;SDS011;3018;48.730;9.336;2022-11-20T00:48:31;3.40;;;3.15;;
5981;SDS011;3018;48.730;9.336;2022-11-20T00:50:57;3.33;;;3.22;;
5981;SDS011;3018;48.730;9.336;2022-11-20T00:53:24;3.75;;;3.17;;
5981;SDS011;3018;48.730;9.336;2022-11-20T00:55:54;4.35;;;3.33;;
5981;SDS011;3018;48.730;9.336;2022-11-20T00:58:20;3.50;;;3.30;;
5981;SDS011;3018;48.730;9.336;2022-11-20T01:00:47;3.60;;;3.30;;
5981;SDS011;3018;48.730;9.336;2022-11-20T01:03:14;3.42;;;3.22;;
5981;SDS011;3018;48.730;9.336;2022-11-20T01:05:42;3.30;;;3.05;;
5981;SDS011;3018;48.730;9.336;2022-11-20T01:08:08;3.47;;;3.28;;
5981;SDS011;3018;48.730;9.336;2022-11-20T01:10:34;2.83;;;2.72;;
5981;SDS011;3018;48.730;9.336;2022-11-20T01:13:01;3.25;;;3.03;;
5981;SDS011;3018;48.730;9.336;2022-11-20T01:15:44;3.20;;;2.90;;
5981;SDS011;3018;48.730;9.336;2022-11-20T01:18:10;3.03;;;2.83;;
5981;SDS011;3018;48.730;9.336;2022-11-20T01:20:36;4.90;;;2.58;;
5981;SDS011;3018;48.730;9.336;2022-11-20T01:23:04;2.88;;;2.67;;
5981;SDS011;3018;48.730;9.336;2022-11-20T01:25:30;3.08;;;2.88;;
5981;SDS011;3018;48.730;9.336;2022-11-20T01:27:56;2.65;;;2.55;;
5981;SDS011;3018;48.730;9.336;2022-11-20T01:30:23;2.80;;;2.70;;
5981;SDS011;3018;48.730;9.336;2022-11-20T01:32:49;2.60;;;2.50;;
5981;SDS011;3018;48.730;9.336;2022-11-20T01:35:15;2.60;;;2.42;;
5981;SDS011;3018;48.730;9.336;2022-11-20T01:37:42;2.80;;;2.58;;
5981;SDS011;3018;48.730;9.336;2022-11-20T01:40:11;2.55;;;2.47;;
5981;SDS011;3018;48.730;9.336;2022-11-20T01:42:37;2.72;;;2.63;;
5981;SDS011;3018;48.730;9.336;2022-11-20T01:48:06;2.40;;;2.30;;
5981;SDS011;3018;48.730;9.336;2022-11-20T01:50:33;2.38;;;2.25;;
5981;SDS011;3018;48.730;9.336;2022-11-20T01:53:00;2.03;;;2.03;;
5981;SDS011;3018;48.730;9.336;2022-11-20T01:55:30;3.70;;;1.90;;
5981;SDS011;3018;48.730;9.336;2022-11-20T01:57:57;2.33;;;2.20;;
5981;SDS011;3018;48.730;9.336;2022-11-20T02:00:23;2.22;;;2.13;;
5981;SDS011;3018;48.730;9.336;2022-11-20T02:02:50;2.15;;;2.05;;
5981;SDS011;3018;48.730;9.336;2022-11-20T02:05:18;2.38;;;2.20;;
5981;SDS011;3018;48.730;9.336;2022-11-20T02:07:46;2.70;;;2.42;;
5981;SDS011;3018;48.730;9.336;2022-11-20T02:10:13;2.05;;;1.98;;
5981;SDS011;3018;48.730;9.336;2022-11-20T02:12:41;1.83;;;1.83;;
5981;SDS011;3018;48.730;9.336;2022-11-20T02:15:25;2.53;;;2.33;;
5981;SDS011;3018;48.730;9.336;2022-11-20T02:17:51;2.05;;;1.95;;
5981;SDS011;3018;48.730;9.336;2022-11-20T02:20:18;3.15;;;2.25;;
5981;SDS011;3018;48.730;9.336;2022-11-20T02:22:46;2.17;;;2.10;;
5981;SDS011;3018;48.730;9.336;2022-11-20T02:25:16;2.67;;;2.47;;
5981;SDS011;3018;48.730;9.336;2022-11-20T02:27:42;2.22;;;2.00;;
5981;SDS011;3018;48.730;9.336;2022-11-20T02:30:09;3.60;;;2.58;;
5981;SDS011;3018;48.730;9.336;2022-11-20T02:32:37;2.30;;;2.17;;
5981;SDS011;3018;48.730;9.336;2022-11-20T02:35:06;2.45;;;2.30;;
5981;SDS011;3018;48.730;9.336;2022-11-20T02:37:34;3.30;;;3.10;;
5981;SDS011;3018;48.730;9.336;2022-11-20T02:40:01;3.33;;;2.97;;
5981;SDS011;3018;48.730;9.336;2022-11-20T02:42:28;4.30;;;3.00;;
5981;SDS011;3018;48.730;9.336;2022-11-20T02:44:55;3.10;;;2.88;;
5981;SDS011;3018;48.730;9.336;2022-11-20T02:47:21;3.20;;;3.00;;
5981;SDS011;3018;48.730;9.336;2022-11-20T02:49:47;3.22;;;3.03;;
5981;SDS011;3018;48.730;9.336;2022-11-20T02:52:13;2.75;;;2.53;;
5981;SDS011;3018;48.730;9.336;2022-11-20T02:54:40;2.72;;;2.53;;
5981;SDS011;3018;48.730;9.336;2022-11-20T02:57:06;3.42;;;2.70;;
5981;SDS011;3018;48.730;9.336;2022-11-20T02:59:34;3.33;;;2.80;;
5981;SDS011;3018;48.730;9.336;2022-11-20T03:02:00;2.38;;;2.17;;
5981;SDS011;3018;48.730;9.336;2022-11-20T03:04:26;2.78;;;2.67;;
5981;SDS011;3018;48.730;9.336;2022-11-20T03:06:53;3.15;;;2.58;;
5981;SDS011;3018;48.730;9.336;2022-11-20T03:09:19;4.05;;;3.65;;
5981;SDS011;3018;48.730;9.336;2022-11-20T03:11:46;3.40;;;3.10;;
5981;SDS011;3018;48.730;9.336;2022-11-20T03:14:12;3.67;;;3.30;;
5981;SDS011;3018;48.730;9.336;2022-11-20T03:16:40;5.22;;;3.45;;
5981;SDS011;3018;48.730;9.336;2022-11-20T03:19:06;4.18;;;3.45;;
5981;SDS011;3018;48.730;9.336;2022-11-20T03:21:33;3.08;;;2.85;;
5981;SDS011;3018;48.730;9.336;2022-11-20T03:23:59;3.95;;;3.65;;
5981;SDS011;3018;48.730;9.336;2022-11-20T03:26:26;3.60;;;3.03;;
5981;SDS011;3018;48.730;9.336;2022-11-20T03:28:53;3.60;;;3.30;;
5981;SDS011;3018;48.730;9.336;2022-11-20T03:31:20;3.03;;;2.90;;
5981;SDS011;3018;48.730;9.336;2022-11-20T03:33:48;3.40;;;2.70;;
5981;SDS011;3018;48.730;9.336;2022-11-20T03:36:16;2.85;;;2.65;;
5981;SDS011;3018;48.730;9.336;2022-11-20T03:38:43;2.97;;;2.80;;
5981;SDS011;3018;48.730;9.336;2022-11-20T03:41:10;2.97;;;2.78;;
5981;SDS011;3018;48.730;9.336;2022-11-20T03:43:37;2.97;;;2.78;;
5981;SDS011;3018;48.730;9.336;2022-11-20T03:46:04;3.15;;;2.95;;
5981;SDS011;3018;48.730;9.336;2022-11-20T03:48:30;2.47;;;2.38;;
5981;SDS011;3018;48.730;9.336;2022-11-20T03:51:07;2.65;;;2.45;;
5981;SDS011;3018;48.730;9.336;2022-11-20T03:53:34;2.75;;;2.42;;
5981;SDS011;3018;48.730;9.336;2022-11-20T03:56:00;2.90;;;2.70;;
5981;SDS011;3018;48.730;9.336;2022-11-20T03:58:26;2.70;;;2.50;;
5981;SDS011;3018;48.730;9.336;2022-11-20T04:00:53;2.72;;;2.47;;
5981;SDS011;3018;48.730;9.336;2022-11-20T04:03:19;3.35;;;2.90;;
5981;SDS011;3018;48.730;9.336;2022-11-20T04:05:45;2.85;;;2.67;;
5981;SDS011;3018;48.730;9.336;2022-11-20T04:08:13;2.85;;;2.65;;
5981;SDS011;3018;48.730;9.336;2022-11-20T04:10:39;2.55;;;2.45;;
5981;SDS011;3018;48.730;9.336;2022-11-20T04:13:05;2.70;;;2.50;;
5981;SDS011;3018;48.730;9.336;2022-11-20T04:15:32;2.60;;;2.40;;
5981;SDS011;3018;48.730;9.336;2022-11-20T04:17:58;2.30;;;2.20;;
5981;SDS011;3018;48.730;9.336;2022-11-20T04:20:24;6.20;;;2.50;;
5981;SDS011;3018;48.730;9.336;2022-11-20T04:22:52;2.47;;;2.38;;
5981;SDS011;3018;48.730;9.336;2022-11-20T04:25:20;2.85;;;2.70;;
5981;SDS011;3018;48.730;9.336;2022-11-20T04:27:46;2.90;;;2.70;;
5981;SDS011;3018;48.730;9.336;2022-11-20T04:30:13;1.95;;;1.85;;
5981;SDS011;3018;48.730;9.336;2022-11-20T04:32:39;2.35;;;2.22;;
5981;SDS011;3018;48.730;9.336;2022-11-20T04:35:06;4.45;;;2.20;;
5981;SDS011;3018;48.730;9.336;2022-11-20T04:37:32;2.63;;;2.40;;
5981;SDS011;3018;48.730;9.336;2022-11-20T04:39:58;2.33;;;2.22;;
5981;SDS011;3018;48.730;9.336;2022-11-20T04:42:26;1.80;;;1.70;;
5981;SDS011;3018;48.730;9.336;2022-11-20T04:44:55;2.00;;;1.95;;
5981;SDS011;3018;48.730;9.336;2022-11-20T04:47:22;2.00;;;2.00;;
5981;SDS011;3018;48.730;9.336;2022-11-20T04:49:48;2.30;;;2.20;;
5981;SDS011;3018;48.730;9.336;2022-11-20T04:52:15;2.70;;;2.50;;
5981;SDS011;3018;48.730;9.336;2022-11-20T04:54:41;1.90;;;1.90;;
5981;SDS011;3018;48.730;9.336;2022-11-20T04:57:07;1.83;;;1.83;;
5981;SDS011;3018;48.730;9.336;2022-11-20T04:59:35;2.63;;;2.42;;
5981;SDS011;3018;48.730;9.336;2022-11-20T05:02:01;1.85;;;1.80;;
5981;SDS011;3018;48.730;9.336;2022-11-20T05:04:27;1.80;;;1.80;;
5981;SDS011;3018;48.730;9.336;2022-11-20T05:06:54;2.05;;;1.92;;
5981;SDS011;3018;48.730;9.336;2022-11-20T05:09:20;2.35;;;2.25;;
5981;SDS011;3018;48.730;9.336;2022-11-20T05:11:46;1.80;;;1.70;;
5981;SDS011;3018;48.730;9.336;2022-11-20T05:14:12;1.85;;;1.75;;
5981;SDS011;3018;48.730;9.336;2022-11-20T05:16:40;2.20;;;2.10;;
5981;SDS011;3018;48.730;9.336;2022-11-20T05:19:06;2.17;;;1.98;;
5981;SDS011;3018;48.730;9.336;2022-11-20T05:21:33;2.00;;;1.88;;
5981;SDS011;3018;48.730;9.336;2022-11-20T05:23:59;1.88;;;1.88;;
5981;SDS011;3018;48.730;9.336;2022-11-20T05:26:25;2.58;;;2.38;;
5981;SDS011;3018;48.730;9.336;2022-11-20T05:28:51;2.55;;;2.35;;
5981;SDS011;3018;48.730;9.336;2022-11-20T05:31:19;1.90;;;1.80;;
5981;SDS011;3018;48.730;9.336;2022-11-20T05:33:46;2.65;;;1.92;;
5981;SDS011;3018;48.730;9.336;2022-11-20T05:36:13;1.98;;;1.88;;
5981;SDS011;3018;48.730;9.336;2022-11-20T05:38:40;2.30;;;2.10;;
5981;SDS011;3018;48.730;9.336;2022-11-20T05:41:07;5.70;;;2.33;;
5981;SDS011;3018;48.730;9.336;2022-11-20T05:43:34;2.40;;;2.30;;
5981;SDS011;3018;48.730;9.336;2022-11-20T05:46:00;3.15;;;3.05;;
5981;SDS011;3018;48.730;9.336;2022-11-20T05:48:27;2.80;;;2.70;;
5981;SDS011;3018;48.730;9.336;2022-11-20T05:50:56;3.15;;;2.85;;
5981;SDS011;3018;48.730;9.336;2022-11-20T05:53:22;2.53;;;2.42;;
5981;SDS011;3018;48.730;9.336;2022-11-20T05:55:55;2.13;;;2.03;;
5981;SDS011;3018;48.730;9.336;2022-11-20T05:58:21;2.33;;;2.17;;
5981;SDS011;3018;48.730;9.336;2022-11-20T06:00:48;2.33;;;2.13;;
5981;SDS011;3018;48.730;9.336;2022-11-20T06:03:14;3.90;;;3.60;;
5981;SDS011;3018;48.730;9.336;2022-11-20T06:05:40;4.28;;;4.15;;
5981;SDS011;3018;48.730;9.336;2022-11-20T06:08:08;4.20;;;3.90;;
5981;SDS011;3018;48.730;9.336;2022-11-20T06:10:34;2.08;;;1.98;;
5981;SDS011;3018;48.730;9.336;2022-11-20T06:13:00;1.70;;;1.65;;
5981;SDS011;3018;48.730;9.336;2022-11-20T06:15:27;3.80;;;1.92;;
5981;SDS011;3018;48.730;9.336;2022-11-20T06:17:53;2.22;;;2.05;;
5981;SDS011;3018;48.730;9.336;2022-11-20T06:20:19;1.85;;;1.75;;
5981;SDS011;3018;48.730;9.336;2022-11-20T06:22:46;1.85;;;1.75;;
5981;SDS011;3018;48.730;9.336;2022-11-20T06:25:14;1.63;;;1.60;;
5981;SDS011;3018;48.730;9.336;2022-11-20T06:27:40;1.48;;;1.48;;
5981;SDS011;3018;48.730;9.336;2022-11-20T06:30:07;1.85;;;1.75;;
5981;SDS011;3018;48.730;9.336;2022-11-20T06:32:33;1.70;;;1.67;;
5981;SDS011;3018;48.730;9.336;2022-11-20T06:34:59;23.80;;;10.50;;
5981;SDS011;3018;48.730;9.336;2022-11-20T06:37:26;16.35;;;8.13;;
5981;SDS011;3018;48.730;9.336;2022-11-20T06:39:52;1.98;;;1.88;;
5981;SDS011;3018;48.730;9.336;2022-11-20T06:42:20;1.77;;;1.77;;
5981;SDS011;3018;48.730;9.336;2022-11-20T06:44:46;2.55;;;1.63;;
5981;SDS011;3018;48.730;9.336;2022-11-20T06:47:12;1.70;;;1.60;;
5981;SDS011;3018;48.730;9.336;2022-11-20T06:49:38;1.90;;;1.80;;
5981;SDS011;3018;48.730;9.336;2022-11-20T06:52:05;1.88;;;1.77;;
5981;SDS011;3018;48.730;9.336;2022-11-20T06:54:31;2.08;;;1.92;;
5981;SDS011;3018;48.730;9.336;2022-11-20T06:56:57;2.08;;;1.98;;
5981;SDS011;3018;48.730;9.336;2022-11-20T06:59:25;2.67;;;2.28;;
5981;SDS011;3018;48.730;9.336;2022-11-20T07:01:51;11.85;;;7.60;;
5981;SDS011;3018;48.730;9.336;2022-11-20T07:04:17;6.70;;;3.65;;
5981;SDS011;3018;48.730;9.336;2022-11-20T07:06:43;4.30;;;2.60;;
5981;SDS011;3018;48.730;9.336;2022-11-20T07:09:10;4.50;;;1.90;;
5981;SDS011;3018;48.730;9.336;2022-11-20T07:11:36;2.20;;;2.00;;
5981;SDS011;3018;48.730;9.336;2022-11-20T07:14:02;1.63;;;1.52;;
5981;SDS011;3018;48.730;9.336;2022-11-20T07:16:30;1.75;;;1.65;;
5981;SDS011;3018;48.730;9.336;2022-11-20T07:18:56;3.08;;;2.00;;
5981;SDS011;3018;48.730;9.336;2022-11-20T07:21:22;1.80;;;1.80;;
5981;SDS011;3018;48.730;9.336;2022-11-20T07:23:49;1.80;;;1.70;;
5981;SDS011;3018;48.730;9.336;2022-11-20T07:26:15;2.53;;;2.00;;
5981;SDS011;3018;48.730;9.336;2022-11-20T07:28:43;2.85;;;1.95;;
5981;SDS011;3018;48.730;9.336;2022-11-20T07:31:09;3.95;;;3.75;;
5981;SDS011;3018;48.730;9.336;2022-11-20T07:33:38;1.90;;;1.80;;
5981;SDS011;3018;48.730;9.336;2022-11-20T07:36:04;1.80;;;1.70;;
5981;SDS011;3018;48.730;9.336;2022-11-20T07:38:31;1.70;;;1.70;;
5981;SDS011;3018;48.730;9.336;2022-11-20T07:40:57;1.67;;;1.50;;
5981;SDS011;3018;48.730;9.336;2022-11-20T07:43:26;1.52;;;1.50;;
5981;SDS011;3018;48.730;9.336;2022-11-20T07:45:54;2.30;;;1.70;;
5981;SDS011;3018;48.730;9.336;2022-11-20T07:48:20;2.60;;;1.75;;
5981;SDS011;3018;48.730;9.336;2022-11-20T07:50:48;1.30;;;1.30;;
5981;SDS011;3018;48.730;9.336;2022-11-20T07:53:14;1.50;;;1.50;;
5981;SDS011;3018;48.730;9.336;2022-11-20T07:55:45;1.90;;;1.77;;
5981;SDS011;3018;48.730;9.336;2022-11-20T07:58:11;1.75;;;1.75;;
5981;SDS011;3018;48.730;9.336;2022-11-20T08:00:38;1.67;;;1.58;;
5981;SDS011;3018;48.730;9.336;2022-11-20T08:03:05;1.40;;;1.35;;
5981;SDS011;3018;48.730;9.336;2022-11-20T08:05:31;2.00;;;1.65;;
5981;SDS011;3018;48.730;9.336;2022-11-20T08:07:59;2.03;;;1.85;;
5981;SDS011;3018;48.730;9.336;2022-11-20T08:10:25;1.77;;;1.77;;
5981;SDS011;3018;48.730;9.336;2022-11-20T08:12:52;4.28;;;1.67;;
5981;SDS011;3018;48.730;9.336;2022-11-20T08:15:36;1.48;;;1.48;;
5981;SDS011;3018;48.730;9.336;2022-11-20T08:18:03;3.47;;;1.70;;
5981;SDS011;3018;48.730;9.336;2022-11-20T08:20:30;2.05;;;1.90;;
5981;SDS011;3018;48.730;9.336;2022-11-20T08:23:01;1.95;;;1.85;;
5981;SDS011;3018;48.730;9.336;2022-11-20T08:25:28;2.35;;;2.13;;
5981;SDS011;3018;48.730;9.336;2022-11-20T08:27:56;2.05;;;1.95;;
5981;SDS011;3018;48.730;9.336;2022-11-20T08:30:23;2.35;;;2.25;;
5981;SDS011;3018;48.730;9.336;2022-11-20T08:32:49;4.25;;;2.20;;
5981;SDS011;3018;48.730;9.336;2022-11-20T08:35:15;2.00;;;1.90;;
5981;SDS011;3018;48.730;9.336;2022-11-20T08:37:41;1.75;;;1.70;;
5981;SDS011;3018;48.730;9.336;2022-11-20T08:40:10;2.88;;;1.63;;
5981;SDS011;3018;48.730;9.336;2022-11-20T08:42:37;1.90;;;1.80;;
5981;SDS011;3018;48.730;9.336;2022-11-20T08:45:04;2.20;;;2.10;;
5981;SDS011;3018;48.730;9.336;2022-11-20T08:47:30;2.47;;;1.80;;
5981;SDS011;3018;48.730;9.336;2022-11-20T08:49:56;2.03;;;1.80;;
5981;SDS011;3018;48.730;9.336;2022-11-20T08:52:23;2.05;;;1.95;;
5981;SDS011;3018;48.730;9.336;2022-11-20T08:54:49;2.50;;;2.40;;
5981;SDS011;3018;48.730;9.336;2022-11-20T08:57:17;1.80;;;1.70;;
5981;SDS011;3018;48.730;9.336;2022-11-20T08:59:43;1.60;;;1.48;;
5981;SDS011;3018;48.730;9.336;2022-11-20T09:02:09;1.88;;;1.77;;
5981;SDS011;3018;48.730;9.336;2022-11-20T09:04:37;1.48;;;1.48;;
5981;SDS011;3018;48.730;9.336;2022-11-20T09:07:03;2.40;;;1.65;;
5981;SDS011;3018;48.730;9.336;2022-11-20T09:09:29;2.47;;;1.70;;
5981;SDS011;3018;48.730;9.336;2022-11-20T09:11:55;1.77;;;1.70;;
5981;SDS011;3018;48.730;9.336;2022-11-20T09:14:23;3.38;;;2.03;;
5981;SDS011;3018;48.730;9.336;2022-11-20T09:16:54;2.10;;;2.00;;
5981;SDS011;3018;48.730;9.336;2022-11-20T09:19:20;2.05;;;1.70;;
5981;SDS011;3018;48.730;9.336;2022-11-20T09:21:46;1.50;;;1.35;;
5981;SDS011;3018;48.730;9.336;2022-11-20T09:24:12;1.88;;;1.80;;
5981;SDS011;3018;48.730;9.336;2022-11-20T09:26:39;2.15;;;1.30;;
5981;SDS011;3018;48.730;9.336;2022-11-20T09:29:06;1.15;;;1.05;;
5981;SDS011;3018;48.730;9.336;2022-11-20T09:31:34;2.30;;;2.08;;
5981;SDS011;3018;48.730;9.336;2022-11-20T09:34:00;1.38;;;1.38;;
5981;SDS011;3018;48.730;9.336;2022-11-20T09:36:26;1.20;;;1.20;;
5981;SDS011;3018;48.730;9.336;2022-11-20T09:38:52;1.95;;;1.85;;
5981;SDS011;3018;48.730;9.336;2022-11-20T09:41:26;3.17;;;1.42;;
5981;SDS011;3018;48.730;9.336;2022-11-20T09:43:58;0.95;;;0.95;;
5981;SDS011;3018;48.730;9.336;2022-11-20T09:46:28;1.10;;;1.10;;
5981;SDS011;3018;48.730;9.336;2022-11-20T09:48:59;0.95;;;0.95;;
5981;SDS011;3018;48.730;9.336;2022-11-20T09:51:34;0.75;;;0.75;;
5981;SDS011;3018;48.730;9.336;2022-11-20T09:54:05;0.93;;;0.93;;
5981;SDS011;3018;48.730;9.336;2022-11-20T09:56:33;0.60;;;0.60;;
5981;SDS011;3018;48.730;9.336;2022-11-20T09:59:02;1.20;;;0.90;;
5981;SDS011;3018;48.730;9.336;2022-11-20T10:01:31;0.60;;;0.60;;
5981;SDS011;3018;48.730;9.336;2022-11-20T10:04:01;4.63;;;4.03;;
5981;SDS011;3018;48.730;9.336;2022-11-20T10:06:31;0.90;;;0.90;;
5981;SDS011;3018;48.730;9.336;2022-11-20T10:09:03;0.90;;;0.90;;
5981;SDS011;3018;48.730;9.336;2022-11-20T10:11:33;1.10;;;1.10;;
5981;SDS011;3018;48.730;9.336;2022-11-20T10:14:02;0.68;;;0.68;;
5981;SDS011;3018;48.730;9.336;2022-11-20T10:16:35;0.80;;;0.80;;
5981;SDS011;3018;48.730;9.336;2022-11-20T10:19:09;0.60;;;0.60;;
5981;SDS011;3018;48.730;9.336;2022-11-20T10:21:39;1.38;;;0.60;;
5981;SDS011;3018;48.730;9.336;2022-11-20T10:24:14;0.60;;;0.60;;
5981;SDS011;3018;48.730;9.336;2022-11-20T10:26:47;0.60;;;0.60;;
5981;SDS011;3018;48.730;9.336;2022-11-20T10:29:15;1.65;;;1.00;;
5981;SDS011;3018;48.730;9.336;2022-11-20T10:31:42;0.77;;;0.77;;
5981;SDS011;3018;48.730;9.336;2022-11-20T10:34:15;0.50;;;0.50;;
5981;SDS011;3018;48.730;9.336;2022-11-20T10:36:43;0.65;;;0.63;;
5981;SDS011;3018;48.730;9.336;2022-11-20T10:39:14;1.10;;;0.73;;
5981;SDS011;3018;48.730;9.336;2022-11-20T10:41:42;0.65;;;0.65;;
5981;SDS011;3018;48.730;9.336;2022-11-20T10:44:12;0.65;;;0.65;;
5981;SDS011;3018;48.730;9.336;2022-11-20T10:47:00;0.60;;;0.60;;
5981;SDS011;3018;48.730;9.336;2022-11-20T10:49:28;0.77;;;0.60;;
5981;SDS011;3018;48.730;9.336;2022-11-20T10:51:57;2.45;;;0.60;;
5981;SDS011;3018;48.730;9.336;2022-11-20T10:54:30;1.30;;;1.00;;
5981;SDS011;3018;48.730;9.336;2022-11-20T10:57:00;0.95;;;0.88;;
5981;SDS011;3018;48.730;9.336;2022-11-20T11:02:15;2.45;;;1.00;;
5981;SDS011;3018;48.730;9.336;2022-11-20T11:04:44;0.88;;;0.88;;
5981;SDS011;3018;48.730;9.336;2022-11-20T11:07:12;0.73;;;0.73;;
5981;SDS011;3018;48.730;9.336;2022-11-20T11:09:41;0.88;;;0.82;;
5981;SDS011;3018;48.730;9.336;2022-11-20T11:12:09;1.20;;;1.20;;
5981;SDS011;3018;48.730;9.336;2022-11-20T11:14:45;3.85;;;3.60;;
5981;SDS011;3018;48.730;9.336;2022-11-20T11:17:20;1.40;;;1.40;;
5981;SDS011;3018;48.730;9.336;2022-11-20T11:19:57;2.45;;;1.35;;
5981;SDS011;3018;48.730;9.336;2022-11-20T11:22:24;4.78;;;4.38;;
5981;SDS011;3018;48.730;9.336;2022-11-20T11:24:51;1.88;;;1.88;;
5981;SDS011;3018;48.730;9.336;2022-11-20T11:27:17;1.70;;;1.60;;
5981;SDS011;3018;48.730;9.336;2022-11-20T11:29:43;2.88;;;2.67;;
5981;SDS011;3018;48.730;9.336;2022-11-20T11:32:11;3.33;;;3.08;;
5981;SDS011;3018;48.730;9.336;2022-11-20T11:34:38;2.28;;;2.10;;
5981;SDS011;3018;48.730;9.336;2022-11-20T11:37:09;1.80;;;1.70;;
5981;SDS011;3018;48.730;9.336;2022-11-20T11:39:36;1.95;;;1.85;;
5981;SDS011;3018;48.730;9.336;2022-11-20T11:42:04;1.30;;;1.20;;
5981;SDS011;3018;48.730;9.336;2022-11-20T11:44:31;2.53;;;2.38;;
5981;SDS011;3018;48.730;9.336;2022-11-20T11:47:19;1.45;;;1.35;;
5981;SDS011;3018;48.730;9.336;2022-11-20T11:49:47;1.42;;;1.33;;
5981;SDS011;3018;48.730;9.336;2022-11-20T11:52:15;1.52;;;1.48;;
5981;SDS011;3018;48.730;9.336;2022-11-20T11:54:43;1.50;;;1.40;;
5981;SDS011;3018;48.730;9.336;2022-11-20T11:57:12;2.10;;;1.00;;
5981;SDS011;3018;48.730;9.336;2022-11-20T11:59:44;1.10;;;1.10;;
5981;SDS011;3018;48.730;9.336;2022-11-20T12:02:15;1.08;;;0.95;;
5981;SDS011;3018;48.730;9.336;2022-11-20T12:04:42;0.98;;;0.88;;
5981;SDS011;3018;48.730;9.336;2022-11-20T12:07:10;2.42;;;1.00;;
5981;SDS011;3018;48.730;9.336;2022-11-20T12:09:41;1.50;;;1.40;;
5981;SDS011;3018;48.730;9.336;2022-11-20T12:12:10;1.50;;;0.90;;
5981;SDS011;3018;48.730;9.336;2022-11-20T12:14:39;0.80;;;0.80;;
5981;SDS011;3018;48.730;9.336;2022-11-20T12:17:07;1.98;;;0.60;;
5981;SDS011;3018;48.730;9.336;2022-11-20T12:19:34;2.63;;;1.02;;
5981;SDS011;3018;48.730;9.336;2022-11-20T12:22:02;1.50;;;0.73;;
5981;SDS011;3018;48.730;9.336;2022-11-20T12:24:37;3.47;;;0.98;;
5981;SDS011;3018;48.730;9.336;2022-11-20T12:27:13;2.30;;;0.73;;
5981;SDS011;3018;48.730;9.336;2022-11-20T12:29:43;2.88;;;0.77;;
5981;SDS011;3018;48.730;9.336;2022-11-20T12:32:22;1.70;;;1.00;;
5981;SDS011;3018;48.730;9.336;2022-11-20T12:34:56;1.08;;;1.02;;
5981;SDS011;3018;48.730;9.336;2022-11-20T12:37:30;1.50;;;1.25;;
5981;SDS011;3018;48.730;9.336;2022-11-20T12:40:00;2.38;;;1.15;;
5981;SDS011;3018;48.730;9.336;2022-11-20T12:42:32;2.08;;;1.30;;
5981;SDS011;3018;48.730;9.336;2022-11-20T12:45:32;0.98;;;0.90;;
5981;SDS011;3018;48.730;9.336;2022-11-20T12:48:05;1.25;;;1.25;;
5981;SDS011;3018;48.730;9.336;2022-11-20T12:50:39;1.67;;;1.52;;
5981;SDS011;3018;48.730;9.336;2022-11-20T12:53:13;2.67;;;1.50;;
5981;SDS011;3018;48.730;9.336;2022-11-20T12:55:46;1.08;;;0.98;;
5981;SDS011;3018;48.730;9.336;2022-11-20T12:58:18;0.98;;;0.90;;
5981;SDS011;3018;48.730;9.336;2022-11-20T13:00:52;1.25;;;1.10;;
5981;SDS011;3018;48.730;9.336;2022-11-20T13:03:27;1.20;;;1.00;;
5981;SDS011;3018;48.730;9.336;2022-11-20T13:05:59;3.40;;;0.90;;
5981;SDS011;3018;48.730;9.336;2022-11-20T13:08:28;1.27;;;0.82;;
5981;SDS011;3018;48.730;9.336;2022-11-20T13:10:57;2.90;;;1.10;;
5981;SDS011;3018;48.730;9.336;2022-11-20T13:13:29;0.65;;;0.60;;
5981;SDS011;3018;48.730;9.336;2022-11-20T13:15:58;3.03;;;0.68;;
5981;SDS011;3018;48.730;9.336;2022-11-20T13:18:27;1.75;;;0.60;;
5981;SDS011;3018;48.730;9.336;2022-11-20T13:20:54;1.80;;;0.80;;
5981;SDS011;3018;48.730;9.336;2022-11-20T13:23:23;1.45;;;0.70;;
5981;SDS011;3018;48.730;9.336;2022-11-20T13:25:50;1.20;;;1.00;;
5981;SDS011;3018;48.730;9.336;2022-11-20T13:28:27;0.57;;;0.57;;
5981;SDS011;3018;48.730;9.336;2022-11-20T13:30:54;1.10;;;0.90;;
5981;SDS011;3018;48.730;9.336;2022-11-20T13:33:22;1.60;;;0.80;;
5981;SDS011;3018;48.730;9.336;2022-11-20T13:35:54;0.60;;;0.60;;
5981;SDS011;3018;48.730;9.336;2022-11-20T13:38:21;1.45;;;0.85;;
5981;SDS011;3018;48.730;9.336;2022-11-20T13:40:50;0.50;;;0.50;;
5981;SDS011;3018;48.730;9.336;2022-11-20T13:43:28;1.08;;;0.60;;
5981;SDS011;3018;48.730;9.336;2022-11-20T13:45:59;0.93;;;0.80;;
5981;SDS011;3018;48.730;9.336;2022-11-20T13:48:26;1.27;;;0.80;;
5981;SDS011;3018;48.730;9.336;2022-11-20T13:51:01;1.40;;;1.30;;
5981;SDS011;3018;48.730;9.336;2022-11-20T13:53:33;0.82;;;0.82;;
5981;SDS011;3018;48.730;9.336;2022-11-20T13:56:04;0.50;;;0.50;;
5981;SDS011;3018;48.730;9.336;2022-11-20T13:58:40;1.05;;;0.80;;
5981;SDS011;3018;48.730;9.336;2022-11-20T14:01:11;1.00;;;0.70;;
5981;SDS011;3018;48.730;9.336;2022-11-20T14:03:39;1.52;;;0.65;;
5981;SDS011;3018;48.730;9.336;2022-11-20T14:06:10;1.70;;;0.65;;
5981;SDS011;3018;48.730;9.336;2022-11-20T14:08:39;2.83;;;0.68;;
5981;SDS011;3018;48.730;9.336;2022-11-20T14:11:12;1.73;;;0.85;;
5981;SDS011;3018;48.730;9.336;2022-11-20T14:13:49;0.70;;;0.43;;
5981;SDS011;3018;48.730;9.336;2022-11-20T14:16:19;1.65;;;0.73;;
5981;SDS011;3018;48.730;9.336;2022-11-20T14:18:45;1.55;;;0.70;;
5981;SDS011;3018;48.730;9.336;2022-11-20T14:21:11;1.70;;;1.05;;
5981;SDS011;3018;48.730;9.336;2022-11-20T14:23:47;0.68;;;0.68;;
5981;SDS011;3018;48.730;9.336;2022-11-20T14:26:13;1.55;;;0.65;;
5981;SDS011;3018;48.730;9.336;2022-11-20T14:28:41;1.90;;;0.70;;
5981;SDS011;3018;48.730;9.336;2022-11-20T14:31:08;1.02;;;0.70;;
5981;SDS011;3018;48.730;9.336;2022-11-20T14:33:43;0.60;;;0.60;;
5981;SDS011;3018;48.730;9.336;2022-11-20T14:36:15;0.82;;;0.82;;
5981;SDS011;3018;48.730;9.336;2022-11-20T14:38:42;1.02;;;1.02;;
5981;SDS011;3018;48.730;9.336;2022-11-20T14:41:08;0.90;;;0.70;;
5981;SDS011;3018;48.730;9.336;2022-11-20T14:43:35;2.47;;;0.98;;
5981;SDS011;3018;48.730;9.336;2022-11-20T14:46:05;0.90;;;0.70;;
5981;SDS011;3018;48.730;9.336;2022-11-20T14:48:32;1.00;;;0.80;;
5981;SDS011;3018;48.730;9.336;2022-11-20T14:50:59;1.90;;;1.20;;
5981;SDS011;3018;48.730;9.336;2022-11-20T14:53:26;1.60;;;1.35;;
5981;SDS011;3018;48.730;9.336;2022-11-20T14:55:56;6.13;;;0.90;;
5981;SDS011;3018;48.730;9.336;2022-11-20T14:58:23;2.30;;;0.80;;
5981;SDS011;3018;48.730;9.336;2022-11-20T15:00:53;1.05;;;0.75;;
5981;SDS011;3018;48.730;9.336;2022-11-20T15:03:21;0.82;;;0.82;;
5981;SDS011;3018;48.730;9.336;2022-11-20T15:05:48;1.67;;;0.60;;
5981;SDS011;3018;48.730;9.336;2022-11-20T15:08:15;2.25;;;0.70;;
5981;SDS011;3018;48.730;9.336;2022-11-20T15:10:45;1.02;;;0.98;;
5981;SDS011;3018;48.730;9.336;2022-11-20T15:13:12;2.85;;;1.63;;
5981;SDS011;3018;48.730;9.336;2022-11-20T15:15:40;2.70;;;2.00;;
5981;SDS011;3018;48.730;9.336;2022-11-20T15:18:10;3.70;;;1.60;;
5981;SDS011;3018;48.730;9.336;2022-11-20T15:20:38;1.80;;;1.13;;
5981;SDS011;3018;48.730;9.336;2022-11-20T15:23:08;3.17;;;1.50;;
5981;SDS011;3018;48.730;9.336;2022-11-20T15:25:34;1.15;;;1.15;;
5981;SDS011;3018;48.730;9.336;2022-11-20T15:28:02;2.35;;;1.48;;